Portada
METAR-TAF:

METAR-TAF

Aeropuertos :

Maturín, Venezuela

Aeropuerto Internacional José Tadeo Monagas

latitud: 09-45N, longitud: 063-11W, altitud: 65 m

Observación

El informe se hizo hace 1 hora y 19 minutos, a las 14:00 UTC
Viento 7 kt del norte
Temperatura 27°C
Humedad 70%
Presión 1012 hPa
Visibilidad 10 km o más
Escasas nubes a una altura de 1300 ft

METAR: SVMT 111400Z 36007KT 9999 FEW013 27/21 Q1012

Hora: 11:19 (15:19 UTC)


TAF: falta

Observaciones y pronósticos meteorológicos de más de 4000 aeropuertos (mensajes METAR y TAF).

Los puntos amarillos y rojos representan las estaciones disponibles.

Ponga el ratón en el punto deseado para ver el nombre de la estación.

Haga clic para ver las observaciones y los pronósticos meteorológicos.

Para cambiar el mapa : haga clic en los botones verdes con una cruz de color negro para hacer un zoom, en el botón verde con un guión para alejar o en las flechas verdes para mapas adyacentes.


METAR-TAF: